Time;durP1;ratioP1;P1;durP2;ratioP2;P2;SDS_P1;SDS_P2;PMS_P1;PMS_P2;Temp;Humidity;BMP_temperature;BMP_pressure;BME280_temperature;BME280_humidity;BME280_pressure;Samples;Min_cycle;Max_cycle;Signal;HPM_P1;HPM_P2
2024/01/08 15:32:07;;;;;;;5.68;2.25;;;0.60;99.90;;;;;;5124363;27;20419;-73
2024/01/08 15:34:34;;;;;;;5.68;2.42;;;0.60;99.90;;;;;;5098742;27;20380;-77
2024/01/08 15:37:00;;;;;;;5.82;1.90;;;0.50;99.90;;;;;;5087216;28;20094;-75
2024/01/08 15:39:26;;;;;;;7.80;2.67;;;0.50;99.90;;;;;;5087522;28;20048;-75
2024/01/08 15:41:51;;;;;;;8.38;2.67;;;0.50;99.90;;;;;;5085861;28;20059;-73
2024/01/08 15:44:17;;;;;;;9.07;3.10;;;0.50;99.90;;;;;;5086680;28;20055;-77
2024/01/08 15:46:46;;;;;;;6.63;2.42;;;0.50;99.90;;;;;;5087379;28;20048;-78
2024/01/08 15:49:12;;;;;;;6.93;2.15;;;0.40;99.90;;;;;;5087382;28;20055;-76
2024/01/08 15:51:37;;;;;;;6.13;3.22;;;0.40;99.90;;;;;;5086795;28;20052;-74
2024/01/08 15:54:03;;;;;;;5.63;2.13;;;0.40;99.90;;;;;;5086763;28;20048;-74
2024/01/08 15:56:29;;;;;;;6.32;2.20;;;0.40;99.90;;;;;;5086899;28;20052;-73
2024/01/08 15:58:57;;;;;;;5.93;2.28;;;0.40;99.90;;;;;;5085302;28;20083;-74
2024/01/08 16:01:24;;;;;;;6.25;1.92;;;0.40;99.90;;;;;;5087158;28;20154;-74
2024/01/08 16:03:50;;;;;;;6.32;1.95;;;0.40;99.90;;;;;;5086442;28;20052;-75
2024/01/08 16:06:15;;;;;;;8.23;2.13;;;0.40;99.90;;;;;;5086832;28;20055;-77
2024/01/08 16:08:41;;;;;;;7.45;2.10;;;0.40;99.90;;;;;;5086701;28;20106;-75
2024/01/08 16:11:07;;;;;;;6.50;2.55;;;0.40;99.90;;;;;;5084836;28;20048;-78
2024/01/08 16:13:32;;;;;;;8.93;2.60;;;0.40;99.90;;;;;;5086635;28;20127;-86
2024/01/08 16:15:58;;;;;;;11.68;2.63;;;0.40;99.90;;;;;;5086291;28;20414;-81
2024/01/08 16:18:24;;;;;;;8.52;2.13;;;0.40;99.90;;;;;;5087320;28;20051;-74
2024/01/08 16:20:50;;;;;;;10.07;2.10;;;0.40;99.90;;;;;;5086394;28;20463;-80
2024/01/08 16:23:15;;;;;;;7.15;2.22;;;0.50;99.90;;;;;;5089297;28;20048;-77
2024/01/08 16:25:41;;;;;;;8.05;2.45;;;0.50;99.90;;;;;;5087073;28;20127;-76
2024/01/08 16:28:07;;;;;;;5.47;2.05;;;0.40;99.90;;;;;;5088052;28;20479;-77
2024/01/08 16:30:33;;;;;;;5.82;2.50;;;0.40;99.90;;;;;;5086215;28;20052;-81
2024/01/08 16:32:58;;;;;;;8.60;2.03;;;0.40;99.90;;;;;;5087569;28;20056;-81
2024/01/08 16:35:26;;;;;;;7.97;3.35;;;0.40;99.90;;;;;;5086743;28;20045;-82
2024/01/08 16:37:51;;;;;;;5.20;2.35;;;0.30;99.90;;;;;;5086714;28;20044;-83
2024/01/08 16:40:18;;;;;;;5.18;2.10;;;0.30;99.90;;;;;;5086663;28;20063;-83
2024/01/08 16:42:45;;;;;;;7.97;2.88;;;0.30;99.90;;;;;;5084192;28;20044;-75
2024/01/08 16:45:10;;;;;;;7.05;3.45;;;0.30;99.90;;;;;;5073614;28;20127;-78
2024/01/08 16:47:37;;;;;;;5.35;2.25;;;0.30;99.90;;;;;;5075572;28;20467;-84
2024/01/08 16:50:02;;;;;;;6.05;2.60;;;0.30;99.90;;;;;;5067545;28;20058;-77
2024/01/08 16:52:30;;;;;;;6.70;2.75;;;0.30;99.90;;;;;;5088929;28;20135;-72
2024/01/08 16:54:56;;;;;;;6.93;2.30;;;0.30;99.90;;;;;;5090082;28;20044;-79
2024/01/08 16:57:22;;;;;;;10.52;3.53;;;0.30;99.90;;;;;;5084019;28;20079;-83
2024/01/08 16:59:50;;;;;;;5.43;2.25;;;0.30;99.90;;;;;;5073604;28;20449;-74
2024/01/08 17:02:16;;;;;;;6.70;2.45;;;0.30;99.90;;;;;;5072590;28;20128;-81
2024/01/08 17:04:45;;;;;;;8.82;2.55;;;0.20;99.90;;;;;;5074050;28;20480;-81
2024/01/08 17:07:11;;;;;;;9.13;3.40;;;0.20;99.90;;;;;;5072580;28;20092;-82
2024/01/08 17:09:43;;;;;;;9.35;2.13;;;0.20;99.90;;;;;;5071876;28;20550;-78
2024/01/08 17:12:10;;;;;;;4.75;2.20;;;0.20;99.90;;;;;;5074640;28;20445;-81
2024/01/08 17:14:40;;;;;;;5.25;1.80;;;0.20;99.90;;;;;;5074931;28;20049;-80
2024/01/08 17:17:06;;;;;;;7.28;2.28;;;0.10;99.90;;;;;;5073614;28;20053;-76
2024/01/08 17:19:32;;;;;;;5.43;2.00;;;0.10;99.90;;;;;;5073234;28;20544;-81
2024/01/08 17:21:58;;;;;;;6.93;2.85;;;0.10;99.90;;;;;;5073446;28;20052;-76
2024/01/08 17:24:24;;;;;;;6.68;2.03;;;0.00;99.90;;;;;;5072036;28;20044;-85
2024/01/08 17:26:49;;;;;;;6.15;2.50;;;0.00;99.90;;;;;;5071768;28;20483;-78
2024/01/08 17:29:16;;;;;;;5.80;2.28;;;-0.10;99.90;;;;;;5073129;28;20127;-84
2024/01/08 17:31:42;;;;;;;9.65;2.45;;;-0.10;99.90;;;;;;5072824;28;20056;-81
2024/01/08 17:34:07;;;;;;;7.50;2.50;;;-0.10;99.90;;;;;;5073304;28;20052;-80
2024/01/08 17:36:33;;;;;;;5.47;2.08;;;-0.10;99.90;;;;;;5071330;28;20080;-73
2024/01/08 17:38:59;;;;;;;7.32;3.58;;;-0.10;99.90;;;;;;5071762;28;20044;-83
2024/01/08 17:41:28;;;;;;;6.30;2.47;;;-0.20;99.90;;;;;;5071809;28;20102;-79
2024/01/08 17:43:54;;;;;;;7.45;2.40;;;-0.20;99.90;;;;;;5072610;28;20389;-73
2024/01/08 17:46:20;;;;;;;5.72;2.40;;;-0.20;99.90;;;;;;5071223;28;20058;-76
2024/01/08 17:48:46;;;;;;;7.25;2.75;;;-0.20;99.90;;;;;;5072546;28;20056;-84
2024/01/08 17:51:12;;;;;;;8.20;2.28;;;-0.20;99.90;;;;;;5072810;28;20049;-75
2024/01/08 17:53:38;;;;;;;13.15;5.03;;;-0.20;99.90;;;;;;5071412;28;20491;-78
2024/01/08 17:56:04;;;;;;;8.65;3.22;;;-0.30;99.90;;;;;;5072656;28;20058;-80
2024/01/08 17:58:31;;;;;;;4.93;2.10;;;-0.40;99.90;;;;;;5071040;28;20053;-80
2024/01/08 18:00:56;;;;;;;9.23;2.60;;;-0.40;99.90;;;;;;5072277;28;20049;-85
2024/01/08 18:03:22;;;;;;;7.00;2.90;;;-0.50;99.90;;;;;;5072859;28;20059;-82
2024/01/08 18:05:48;;;;;;;6.82;2.83;;;-0.50;99.90;;;;;;5072244;28;20056;-73
2024/01/08 18:08:14;;;;;;;7.15;2.60;;;-0.50;99.90;;;;;;5072274;28;20056;-78
2024/01/08 18:10:39;;;;;;;6.05;2.47;;;-0.60;99.90;;;;;;5071993;28;20052;-84
2024/01/08 18:13:05;;;;;;;5.25;2.03;;;-0.60;99.90;;;;;;5073110;28;20064;-75
2024/01/08 18:15:30;;;;;;;5.18;2.55;;;-0.60;99.90;;;;;;5070834;28;20059;-77
2024/01/08 18:17:57;;;;;;;7.97;2.78;;;-0.60;99.90;;;;;;5072334;28;20409;-77
2024/01/08 18:20:22;;;;;;;6.05;2.60;;;-0.70;99.90;;;;;;5072129;28;20435;-74
2024/01/08 18:22:48;;;;;;;8.75;2.83;;;-0.80;99.90;;;;;;5072184;28;20049;-80
2024/01/08 18:25:18;;;;;;;7.53;3.47;;;-0.70;99.90;;;;;;5070936;28;20519;-76
2024/01/08 18:27:44;;;;;;;6.95;2.47;;;-0.80;99.90;;;;;;5071958;28;20044;-84
2024/01/08 18:30:10;;;;;;;9.77;2.78;;;-0.80;99.90;;;;;;5070201;28;20518;-84
2024/01/08 18:32:36;;;;;;;5.93;2.50;;;-0.80;99.90;;;;;;5071787;28;20052;-84
2024/01/08 18:35:04;;;;;;;5.50;2.47;;;-0.80;99.90;;;;;;5070442;28;20056;-81
2024/01/08 18:37:30;;;;;;;6.38;2.40;;;-0.80;99.90;;;;;;5071764;28;20491;-84
2024/01/08 18:39:58;;;;;;;4.38;2.20;;;-0.80;99.90;;;;;;5070489;28;20542;-82
2024/01/08 18:42:23;;;;;;;5.93;1.92;;;-0.90;99.90;;;;;;5071579;28;20140;-79
2024/01/08 18:44:49;;;;;;;6.38;1.85;;;-0.80;99.90;;;;;;5071753;28;20447;-84
2024/01/08 18:47:16;;;;;;;6.68;2.60;;;-0.80;99.90;;;;;;5070129;28;20117;-79
2024/01/08 18:49:42;;;;;;;9.35;2.97;;;-0.80;99.90;;;;;;5069876;28;20093;-79
2024/01/08 18:52:08;;;;;;;7.35;2.50;;;-0.80;99.90;;;;;;5071661;28;20048;-79
2024/01/08 18:54:34;;;;;;;6.90;2.40;;;-0.80;99.90;;;;;;5071537;28;20051;-76
2024/01/08 18:56:59;;;;;;;5.85;2.38;;;-0.80;99.90;;;;;;5069993;28;20056;-75
2024/01/08 18:59:25;;;;;;;5.00;2.40;;;-0.80;99.90;;;;;;5071858;28;20103;-75
2024/01/08 19:01:51;;;;;;;5.15;2.00;;;-0.80;99.90;;;;;;5071649;28;20048;-84
2024/01/08 19:04:16;;;;;;;6.80;2.17;;;-0.80;99.90;;;;;;5071555;28;20079;-73
2024/01/08 19:06:43;;;;;;;10.95;2.78;;;-0.90;99.90;;;;;;5053075;28;20098;-82
2024/01/08 19:09:10;;;;;;;6.03;2.70;;;-0.90;99.90;;;;;;5069697;28;20055;-75
2024/01/08 19:11:37;;;;;;;5.45;2.67;;;-0.90;99.90;;;;;;5071521;28;20060;-82
2024/01/08 19:14:03;;;;;;;4.93;2.40;;;-0.90;99.90;;;;;;5071439;28;20127;-79
2024/01/08 19:16:29;;;;;;;6.22;2.28;;;-0.90;99.90;;;;;;5072123;28;20048;-74
2024/01/08 19:18:55;;;;;;;7.03;2.47;;;-0.80;99.90;;;;;;5069589;28;20044;-84
2024/01/08 19:21:20;;;;;;;6.53;2.45;;;-0.90;99.90;;;;;;5071965;28;20131;-77
2024/01/08 19:23:46;;;;;;;9.25;2.80;;;-0.90;99.90;;;;;;5069934;28;20155;-74
2024/01/08 19:26:12;;;;;;;7.30;2.42;;;-0.90;99.90;;;;;;5071072;28;20052;-73
2024/01/08 19:28:41;;;;;;;8.35;2.97;;;-0.90;99.90;;;;;;5052905;28;20492;-79
2024/01/08 19:31:09;;;;;;;7.97;4.05;;;-0.90;99.90;;;;;;5070496;28;20057;-82
2024/01/08 19:33:35;;;;;;;7.03;2.70;;;-0.90;99.90;;;;;;5071129;28;20393;-83
2024/01/08 19:36:00;;;;;;;10.88;2.63;;;-0.90;99.90;;;;;;5071274;28;20059;-85
2024/01/08 19:38:26;;;;;;;8.43;2.42;;;-0.90;99.90;;;;;;5069520;28;20090;-82
2024/01/08 19:40:53;;;;;;;14.57;5.53;;;-0.90;99.90;;;;;;5071124;28;20056;-82
2024/01/08 19:43:18;;;;;;;6.72;2.60;;;-0.90;99.90;;;;;;5071177;28;20151;-85
2024/01/08 19:45:44;;;;;;;7.18;2.55;;;-0.90;99.90;;;;;;5070591;28;20113;-80
2024/01/08 19:48:10;;;;;;;5.05;2.40;;;-0.90;99.90;;;;;;5069325;28;20060;-82
2024/01/08 19:50:36;;;;;;;9.48;2.58;;;-0.90;99.90;;;;;;5071308;28;20143;-80
2024/01/08 19:53:01;;;;;;;7.50;2.63;;;-1.00;99.90;;;;;;5069927;28;20060;-84
2024/01/08 19:55:27;;;;;;;11.68;2.63;;;-1.00;99.90;;;;;;5072111;28;20124;-85
2024/01/08 19:57:53;;;;;;;14.38;5.20;;;-0.90;99.90;;;;;;5071047;28;20047;-73
2024/01/08 20:00:19;;;;;;;8.63;3.22;;;-0.90;99.90;;;;;;5071004;28;20040;-82
2024/01/08 20:02:44;;;;;;;6.57;2.75;;;-0.90;99.90;;;;;;5070866;28;20062;-85
2024/01/08 20:05:10;;;;;;;6.40;2.70;;;-1.00;99.90;;;;;;5072523;28;20058;-84
2024/01/08 20:07:36;;;;;;;5.68;2.88;;;-0.90;99.90;;;;;;5071934;28;20110;-74
2024/01/08 20:10:03;;;;;;;9.50;2.90;;;-1.00;99.90;;;;;;5070873;28;20048;-78
2024/01/08 20:12:29;;;;;;;7.97;2.92;;;-1.00;99.90;;;;;;5069979;28;20110;-72
2024/01/08 20:14:54;;;;;;;8.93;2.85;;;-1.00;99.90;;;;;;5070547;28;20434;-73
2024/01/08 20:17:20;;;;;;;6.90;3.15;;;-1.00;99.90;;;;;;5071968;28;20135;-74
2024/01/08 20:19:46;;;;;;;10.57;3.42;;;-1.00;99.90;;;;;;5074271;28;20049;-73
2024/01/08 20:22:15;;;;;;;4.95;2.30;;;-1.00;99.90;;;;;;5074154;28;20470;-77
2024/01/08 20:24:43;;;;;;;7.30;2.65;;;-1.00;99.90;;;;;;5074621;28;20045;-73
2024/01/08 20:27:09;;;;;;;6.72;2.78;;;-1.00;99.90;;;;;;5074005;28;20422;-82
2024/01/08 20:29:34;;;;;;;8.20;2.72;;;-1.00;99.90;;;;;;5074347;28;20098;-72
2024/01/08 20:32:03;;;;;;;6.07;2.78;;;-1.00;99.90;;;;;;5073722;28;20057;-74
2024/01/08 20:34:29;;;;;;;6.10;2.17;;;-1.00;99.90;;;;;;5073954;28;20412;-76
2024/01/08 20:36:55;;;;;;;8.20;2.97;;;-1.00;99.90;;;;;;5073859;28;20054;-83
2024/01/08 20:39:24;;;;;;;8.02;2.63;;;-1.00;99.90;;;;;;5073739;28;20638;-78
2024/01/08 20:41:49;;;;;;;12.05;3.88;;;-1.10;99.90;;;;;;5074138;28;20161;-78
2024/01/08 20:44:16;;;;;;;5.70;2.65;;;-1.00;99.90;;;;;;5073940;28;20097;-76
2024/01/08 20:46:42;;;;;;;10.27;3.28;;;-1.10;99.90;;;;;;5074867;28;20053;-79
2024/01/08 20:49:07;;;;;;;13.20;4.00;;;-1.10;99.90;;;;;;5055980;28;20051;-78
2024/01/08 20:51:33;;;;;;;7.57;2.90;;;-1.10;99.90;;;;;;5074005;28;20052;-72
2024/01/08 20:53:59;;;;;;;6.78;2.85;;;-1.10;99.90;;;;;;5074039;28;20147;-84
2024/01/08 20:56:24;;;;;;;7.82;2.70;;;-1.10;99.90;;;;;;5073589;28;20056;-83
2024/01/08 20:58:50;;;;;;;7.90;2.78;;;-1.00;99.90;;;;;;5073621;28;20052;-79
2024/01/08 21:01:16;;;;;;;10.35;3.35;;;-1.10;99.90;;;;;;5056346;28;20101;-78
2024/01/08 21:03:42;;;;;;;8.75;3.00;;;-1.10;99.90;;;;;;5072227;28;20055;-78
2024/01/08 21:06:07;;;;;;;14.07;3.45;;;-1.10;99.90;;;;;;5072010;28;20052;-83
2024/01/08 21:08:33;;;;;;;8.30;2.47;;;-1.20;99.90;;;;;;5072376;28;20102;-82
2024/01/08 21:11:01;;;;;;;7.13;3.10;;;-1.10;99.90;;;;;;5073596;28;20044;-78
2024/01/08 21:13:26;;;;;;;10.48;3.22;;;-1.20;99.90;;;;;;5072218;28;20051;-76
2024/01/08 21:15:52;;;;;;;11.18;3.25;;;-1.20;99.90;;;;;;5072130;28;20052;-82
2024/01/08 21:18:18;;;;;;;7.15;2.65;;;-1.20;99.90;;;;;;5073043;28;20057;-82
2024/01/08 21:20:44;;;;;;;10.52;3.28;;;-1.20;99.90;;;;;;5073244;28;20041;-80
2024/01/08 21:23:09;;;;;;;6.20;3.05;;;-1.20;99.90;;;;;;5071749;28;20063;-83
2024/01/08 21:25:35;;;;;;;7.97;2.55;;;-1.20;99.90;;;;;;5072752;28;20518;-82
2024/01/08 21:28:00;;;;;;;8.32;2.25;;;-1.20;99.90;;;;;;5073030;28;20052;-79
2024/01/08 21:30:26;;;;;;;8.82;3.10;;;-1.20;99.90;;;;;;5071521;28;20139;-83
2024/01/08 21:32:52;;;;;;;6.60;3.05;;;-1.20;99.90;;;;;;5071247;28;20476;-82
2024/01/08 21:35:17;;;;;;;5.45;2.22;;;-1.20;99.90;;;;;;5071618;28;20052;-83
2024/01/08 21:37:43;;;;;;;7.25;3.10;;;-1.30;99.90;;;;;;5072778;28;20118;-76
2024/01/08 21:40:10;;;;;;;7.00;3.15;;;-1.20;99.90;;;;;;5071859;28;20135;-74
2024/01/08 21:42:36;;;;;;;11.18;3.30;;;-1.30;99.90;;;;;;5071569;28;20526;-77
2024/01/08 21:45:03;;;;;;;9.38;2.85;;;-1.30;99.90;;;;;;5071376;28;20123;-79
2024/01/08 21:47:28;;;;;;;8.55;2.55;;;-1.30;99.90;;;;;;5071253;28;20132;-77
2024/01/08 21:49:54;;;;;;;11.93;2.97;;;-1.30;99.90;;;;;;5072725;28;20127;-72
2024/01/08 21:52:23;;;;;;;8.68;3.58;;;-1.30;99.90;;;;;;5072921;28;20084;-72
2024/01/08 21:54:52;;;;;;;9.23;2.85;;;-1.30;99.90;;;;;;5072739;28;20120;-73
2024/01/08 21:57:18;;;;;;;7.82;2.42;;;-1.30;99.90;;;;;;5071841;28;20060;-76
2024/01/08 21:59:44;;;;;;;6.43;2.47;;;-1.30;99.90;;;;;;5072388;28;20101;-78
2024/01/08 22:02:11;;;;;;;7.78;2.72;;;-1.30;99.90;;;;;;5072333;28;20044;-72
2024/01/08 22:04:37;;;;;;;10.32;3.45;;;-1.30;99.90;;;;;;5071210;28;20060;-74
2024/01/08 22:07:03;;;;;;;7.68;2.45;;;-1.30;99.90;;;;;;5072122;28;20044;-71
2024/01/08 22:09:29;;;;;;;9.70;3.88;;;-1.30;99.90;;;;;;5072158;28;20051;-74
2024/01/08 22:11:54;;;;;;;8.23;3.13;;;-1.30;99.90;;;;;;5072458;28;20507;-82
2024/01/08 22:14:24;;;;;;;10.32;3.45;;;-1.40;99.90;;;;;;5072199;28;20052;-75
2024/01/08 22:16:51;;;;;;;11.68;3.40;;;-1.40;99.90;;;;;;5071853;28;20056;-77
2024/01/08 22:19:17;;;;;;;9.95;2.95;;;-1.40;99.90;;;;;;5070988;28;20123;-74
2024/01/08 22:21:43;;;;;;;8.32;3.35;;;-1.40;99.90;;;;;;5071911;28;20136;-79
2024/01/08 22:24:09;;;;;;;9.80;4.55;;;-1.40;99.90;;;;;;5070621;28;20430;-75
2024/01/08 22:26:34;;;;;;;8.82;3.08;;;-1.40;99.90;;;;;;5071952;28;20044;-72
2024/01/08 22:29:00;;;;;;;5.85;2.95;;;-1.40;99.90;;;;;;5070738;28;20048;-80
2024/01/08 22:31:26;;;;;;;9.75;3.45;;;-1.40;99.90;;;;;;5070457;28;20063;-80
2024/01/08 22:33:52;;;;;;;7.25;2.97;;;-1.40;99.90;;;;;;5070554;28;20059;-78
2024/01/08 22:36:18;;;;;;;6.38;2.90;;;-1.50;99.90;;;;;;5072113;28;20495;-73
2024/01/08 22:38:46;;;;;;;6.60;2.83;;;-1.50;99.90;;;;;;5071035;28;20085;-81
2024/01/08 22:41:12;;;;;;;8.27;3.08;;;-1.50;99.90;;;;;;5071565;28;20056;-80
2024/01/08 22:43:38;;;;;;;8.70;2.60;;;-1.60;99.90;;;;;;5070463;28;20044;-81
2024/01/08 22:46:04;;;;;;;10.02;3.83;;;-1.60;99.90;;;;;;5071999;28;20549;-81
2024/01/08 22:48:29;;;;;;;6.18;2.65;;;-1.70;99.90;;;;;;5071022;28;20052;-77
2024/01/08 22:50:55;;;;;;;5.55;2.42;;;-1.60;99.90;;;;;;5071113;28;20076;-78
2024/01/08 22:53:21;;;;;;;6.53;2.83;;;-1.60;99.90;;;;;;5070058;28;20059;-80
2024/01/08 22:55:46;;;;;;;7.20;3.05;;;-1.70;99.90;;;;;;5071538;28;20052;-81
2024/01/08 22:58:12;;;;;;;11.05;2.97;;;-1.70;99.90;;;;;;5071595;28;20040;-80
2024/01/08 23:00:38;;;;;;;6.90;3.05;;;-1.70;99.90;;;;;;5069728;28;20434;-80
2024/01/08 23:03:04;;;;;;;5.28;2.35;;;-1.70;99.90;;;;;;5069922;28;20053;-79
2024/01/08 23:05:31;;;;;;;7.18;2.80;;;-1.70;99.90;;;;;;5071282;28;20110;-79
2024/01/08 23:07:56;;;;;;;6.82;3.05;;;-1.80;99.90;;;;;;5069944;28;20506;-81
2024/01/08 23:10:22;;;;;;;6.80;2.38;;;-1.70;99.90;;;;;;5069782;28;20131;-81
2024/01/08 23:12:48;;;;;;;6.55;3.13;;;-1.80;99.90;;;;;;5071219;28;20163;-80
2024/01/08 23:15:18;;;;;;;9.18;2.80;;;-1.80;99.90;;;;;;5070975;28;20075;-80
2024/01/08 23:17:45;;;;;;;5.97;2.67;;;-1.80;99.90;;;;;;5069742;28;20504;-80
2024/01/08 23:20:11;;;;;;;8.02;3.85;;;-1.90;99.90;;;;;;5071060;28;20381;-71
2024/01/08 23:22:36;;;;;;;8.02;2.30;;;-1.90;99.90;;;;;;5070821;28;20052;-78
2024/01/08 23:25:02;;;;;;;7.43;3.03;;;-1.90;99.90;;;;;;5071014;28;20097;-80
2024/01/08 23:27:28;;;;;;;7.20;2.67;;;-1.90;99.90;;;;;;5070950;28;20586;-82
2024/01/08 23:29:55;;;;;;;8.35;3.00;;;-1.90;99.90;;;;;;5070849;28;20119;-78
2024/01/08 23:32:21;;;;;;;10.43;3.00;;;-2.00;99.90;;;;;;5053494;28;20496;-81
2024/01/08 23:34:46;;;;;;;7.03;2.38;;;-2.00;99.90;;;;;;5071241;28;20049;-80
2024/01/08 23:37:12;;;;;;;7.50;2.78;;;-2.00;99.90;;;;;;5071078;28;20044;-79
2024/01/08 23:39:38;;;;;;;6.13;2.33;;;-2.00;99.90;;;;;;5071253;28;20076;-80
2024/01/08 23:42:04;;;;;;;7.20;2.95;;;-2.00;99.90;;;;;;5071420;28;20040;-82
2024/01/08 23:44:29;;;;;;;6.50;2.70;;;-2.00;99.90;;;;;;5071211;28;20080;-75
2024/01/08 23:46:55;;;;;;;8.85;2.97;;;-2.10;99.90;;;;;;5069859;28;20083;-76
2024/01/08 23:49:21;;;;;;;8.20;2.60;;;-2.10;99.90;;;;;;5069822;28;20104;-83
2024/01/08 23:51:47;;;;;;;5.63;2.10;;;-2.10;99.90;;;;;;5071088;28;20551;-78
2024/01/08 23:54:13;;;;;;;6.35;2.00;;;-2.10;99.90;;;;;;5074980;28;20051;-77
2024/01/08 23:56:39;;;;;;;5.60;1.77;;;-2.10;99.90;;;;;;5074625;28;20048;-79
2024/01/08 23:59:05;;;;;;;5.18;1.90;;;-2.10;99.90;;;;;;5075108;28;20052;-81
